Time;durP1;ratioP1;P1;durP2;ratioP2;P2;SDS_P1;SDS_P2;PMS_P1;PMS_P2;Temp;Humidity;BMP_temperature;BMP_pressure;BME280_temperature;BME280_humidity;BME280_pressure;Samples;Min_cycle;Max_cycle;Signal;HPM_P1;HPM_P2
2022/03/15 00:01:10;;;;;;;;;6.50;6.00;;;;;13.44;50.34;102058.94;5025411;28;45205;-69
2022/03/15 00:03:36;;;;;;;;;7.75;7.00;;;;;13.47;51.06;102057.06;5032411;28;45169;-69
2022/03/15 00:06:02;;;;;;;;;9.00;7.50;;;;;13.46;50.58;102057.97;5021469;28;45491;-69
2022/03/15 00:08:28;;;;;;;;;8.00;7.00;;;;;13.45;50.63;102056.22;5025235;28;47461;-69
2022/03/15 00:10:58;;;;;;;;;6.50;6.25;;;;;13.42;50.48;102048.25;5034681;28;45399;-69
2022/03/15 00:13:28;;;;;;;;;5.50;5.50;;;;;13.44;50.41;102053.59;5021673;28;45330;-70
2022/03/15 00:15:54;;;;;;;;;6.75;6.50;;;;;13.42;50.36;102045.56;5035210;28;45521;-69
2022/03/15 00:18:20;;;;;;;;;5.00;5.00;;;;;13.42;50.70;102047.38;5026015;28;46114;-69
2022/03/15 00:20:45;;;;;;;;;7.00;5.25;;;;;13.40;50.65;102035.78;5024889;28;45341;-69
2022/03/15 00:23:11;;;;;;;;;8.00;6.75;;;;;13.40;50.75;102033.09;5034791;28;45327;-70
2022/03/15 00:25:36;;;;;;;;;7.25;6.00;;;;;13.38;50.65;102037.63;5037846;28;45619;-69
2022/03/15 00:28:02;;;;;;;;;10.00;7.00;;;;;13.45;50.59;102039.25;5027585;28;46184;-69
2022/03/15 00:30:27;;;;;;;;;7.75;6.75;;;;;13.46;50.62;102051.75;5021412;28;45305;-69
2022/03/15 00:32:53;;;;;;;;;7.25;6.25;;;;;13.37;50.59;102027.84;5021608;28;45345;-70
2022/03/15 00:35:19;;;;;;;;;8.50;8.00;;;;;13.41;50.78;102035.75;5023151;28;45220;-70
2022/03/15 00:37:46;;;;;;;;;7.75;6.50;;;;;13.44;50.77;102042.84;5032290;28;45402;-69
2022/03/15 00:40:12;;;;;;;;;5.00;4.75;;;;;13.42;50.28;102047.38;5021209;28;45485;-70
2022/03/15 00:42:39;;;;;;;;;5.00;5.00;;;;;13.42;50.63;102047.38;5021387;28;45288;-69
2022/03/15 00:45:05;;;;;;;;;6.00;6.00;;;;;13.41;50.59;102046.47;5034150;28;45323;-69
2022/03/15 00:47:31;;;;;;;;;9.00;6.75;;;;;13.39;50.53;102034.03;5021117;28;46275;-70
2022/03/15 00:49:57;;;;;;;;;7.50;5.75;;;;;13.36;50.51;102024.25;5034632;28;45317;-69
2022/03/15 00:52:22;;;;;;;;;5.00;5.00;;;;;13.39;50.61;102034.03;5031064;28;45297;-69
2022/03/15 00:54:47;;;;;;;;;5.75;5.00;;;;;13.34;50.40;102026.97;5034625;28;47457;-69
2022/03/15 00:57:13;;;;;;;;;5.00;5.00;;;;;13.29;50.72;102027.97;5020545;28;45534;-70
2022/03/15 00:59:38;;;;;;;;;8.00;5.75;;;;;13.27;50.80;102022.63;5021261;28;45174;-69
2022/03/15 01:02:03;;;;;;;;;6.00;5.00;;;;;13.28;50.75;102016.38;5020785;28;45345;-70
2022/03/15 01:04:29;;;;;;;;;6.00;4.50;;;;;13.26;50.89;102010.13;5023716;28;45204;-69
2022/03/15 01:06:54;;;;;;;;;5.75;4.75;;;;;13.21;50.94;102001.31;5034000;28;46026;-69
2022/03/15 01:09:20;;;;;;;;;6.50;5.00;;;;;13.25;50.85;102018.25;5021025;28;45237;-70
2022/03/15 01:11:45;;;;;;;;;6.00;4.50;;;;;13.19;50.94;102016.56;5020803;28;45787;-69
2022/03/15 01:14:11;;;;;;;;;7.00;4.50;;;;;13.19;51.13;102015.69;5026603;28;45689;-69
2022/03/15 01:16:36;;;;;;;;;6.50;3.75;;;;;13.21;51.19;102017.41;5037682;28;45446;-69
2022/03/15 01:19:01;;;;;;;;;6.25;6.25;;;;;13.21;50.87;102003.13;5023510;28;45350;-69
2022/03/15 01:21:28;;;;;;;;;4.00;4.00;;;;;13.20;51.11;102001.34;5032111;28;45363;-70
2022/03/15 01:23:53;;;;;;;;;5.00;5.00;;;;;13.20;51.20;101993.31;5026577;28;45300;-69
2022/03/15 01:26:19;;;;;;;;;6.25;4.75;;;;;13.21;50.97;101993.28;5040445;28;46145;-69
2022/03/15 01:28:44;;;;;;;;;5.00;5.00;;;;;13.20;51.08;101983.50;5023168;28;45336;-69
2022/03/15 01:31:11;;;;;;;;;6.25;4.50;;;;;13.23;51.39;101988.78;5020881;28;45373;-69
2022/03/15 01:33:37;;;;;;;;;6.00;4.25;;;;;13.23;51.34;101983.41;5020235;28;45407;-69
2022/03/15 01:36:03;;;;;;;;;8.25;7.50;;;;;13.27;51.26;101984.22;5027618;28;46229;-69
2022/03/15 01:38:28;;;;;;;;;5.00;4.00;;;;;13.25;51.26;101984.25;5026032;28;45310;-70
2022/03/15 01:40:53;;;;;;;;;5.00;5.00;;;;;13.28;51.51;101986.88;5019686;28;45312;-69
2022/03/15 01:43:19;;;;;;;;;5.25;4.75;;;;;13.29;51.74;101977.00;5020169;28;45292;-69
2022/03/15 01:45:44;;;;;;;;;5.00;3.25;;;;;13.31;51.34;101973.41;5033898;28;46311;-69
2022/03/15 01:48:10;;;;;;;;;5.25;4.75;;;;;13.29;51.52;101969.84;5020233;28;45403;-69
2022/03/15 01:50:37;;;;;;;;;4.50;4.50;;;;;13.31;51.26;101965.34;5047757;28;45345;-69
2022/03/15 01:53:03;;;;;;;;;6.25;6.00;;;;;13.31;51.59;101959.09;5027890;28;45158;-69
2022/03/15 01:55:28;;;;;;;;;5.25;4.00;;;;;13.32;51.75;101956.41;5028691;28;45397;-69
2022/03/15 01:57:54;;;;;;;;;4.50;4.50;;;;;13.34;51.63;101959.03;5051075;28;45430;-69
2022/03/15 02:00:20;;;;;;;;;7.25;5.75;;;;;13.33;51.87;101947.44;5024622;28;45378;-69
2022/03/15 02:02:46;;;;;;;;;5.00;5.00;;;;;13.37;51.85;101942.88;5019948;28;45327;-69
2022/03/15 02:05:12;;;;;;;;;4.50;4.50;;;;;13.39;51.80;101941.03;5020893;28;45482;-69
2022/03/15 02:07:38;;;;;;;;;7.00;5.75;;;;;13.39;51.86;101940.16;5026467;28;45287;-69
2022/03/15 02:10:05;;;;;;;;;5.00;5.00;;;;;13.38;52.26;101933.03;5032129;28;45483;-70
2022/03/15 02:12:32;;;;;;;;;7.25;5.50;;;;;13.32;52.46;101926.03;5041331;28;45370;-69
2022/03/15 02:15:01;;;;;;;;;6.75;6.00;;;;;13.30;52.45;101933.22;5031112;28;46179;-69
2022/03/15 02:17:27;;;;;;;;;5.00;4.75;;;;;13.32;52.76;101934.06;5030468;28;45588;-69
2022/03/15 02:19:53;;;;;;;;;4.00;4.00;;;;;13.32;52.77;101923.34;5020462;28;45330;-69
2022/03/15 02:22:19;;;;;;;;;5.25;5.25;;;;;13.33;52.94;101922.41;5038369;28;45326;-69
2022/03/15 02:24:45;;;;;;;;;6.00;5.75;;;;;13.35;53.19;101912.56;5030726;28;46215;-69
2022/03/15 02:27:10;;;;;;;;;6.00;5.00;;;;;13.34;53.45;101918.81;5036364;28;45347;-69
2022/03/15 02:29:35;;;;;;;;;6.50;6.00;;;;;13.30;53.41;101909.06;5021001;28;45516;-69
2022/03/15 02:32:01;;;;;;;;;6.00;6.00;;;;;13.17;53.76;101887.03;5029702;28;45474;-69
2022/03/15 02:34:26;;;;;;;;;5.50;5.50;;;;;13.29;53.69;101905.50;5032243;28;45245;-69
2022/03/15 02:36:51;;;;;;;;;8.00;5.00;;;;;13.27;53.81;101893.06;5019592;28;45226;-69
2022/03/15 02:39:17;;;;;;;;;6.50;5.75;;;;;13.28;53.99;101895.69;5019746;28;45440;-69
2022/03/15 02:41:42;;;;;;;;;1.75;0.00;;;;;13.29;53.79;101891.22;5026133;28;45561;-69
2022/03/15 02:44:09;;;;;;;;;5.75;5.00;;;;;13.28;54.31;101898.38;5035108;28;46098;-69
2022/03/15 02:46:36;;;;;;;;;4.00;4.00;;;;;13.27;54.40;101887.69;5028265;28;45374;-69
2022/03/15 02:49:02;;;;;;;;;8.00;8.00;;;;;13.27;54.46;101887.69;5019518;28;45429;-69
2022/03/15 02:51:28;;;;;;;;;6.25;5.25;;;;;13.25;54.72;101887.72;5020376;28;46161;-69
2022/03/15 02:53:53;;;;;;;;;8.00;6.50;;;;;13.21;54.83;101875.31;5024053;28;45777;-69
2022/03/15 02:56:19;;;;;;;;;6.00;6.00;;;;;13.21;54.99;101877.97;5034866;28;45268;-69
2022/03/15 02:58:45;;;;;;;;;6.50;4.50;;;;;13.17;55.37;101870.94;5025673;28;45237;-69
2022/03/15 03:01:10;;;;;;;;;6.00;6.00;;;;;13.18;55.28;101867.38;5054794;28;45460;-69
2022/03/15 03:03:37;;;;;;;;;8.00;6.00;;;;;13.18;55.60;101861.09;5039259;28;46181;-69
2022/03/15 03:06:02;;;;;;;;;8.25;6.75;;;;;13.20;55.42;101862.84;5023176;28;45452;-69
2022/03/15 03:08:28;;;;;;;;;5.75;5.75;;;;;13.22;55.75;101861.00;5022927;28;45317;-69
2022/03/15 03:10:55;;;;;;;;;6.00;5.50;;;;;13.25;55.70;101857.38;5033897;28;45357;-69
2022/03/15 03:13:25;;;;;;;;;6.00;6.00;;;;;13.24;55.85;101858.28;5030138;28;46046;-69
2022/03/15 03:15:51;;;;;;;;;6.00;6.00;;;;;13.23;56.42;101865.44;5037560;28;45228;-69
2022/03/15 03:18:16;;;;;;;;;7.00;7.00;;;;;13.08;56.47;101845.25;5032059;28;46207;-69
2022/03/15 03:20:42;;;;;;;;;6.00;6.00;;;;;13.11;56.77;101853.22;5022515;28;45360;-69
2022/03/15 03:23:07;;;;;;;;;6.00;5.25;;;;;13.19;57.04;101865.56;5029266;28;46145;-69
2022/03/15 03:25:35;;;;;;;;;7.50;6.00;;;;;13.04;57.22;101840.88;5034148;28;45289;-69
2022/03/15 03:28:01;;;;;;;;;6.00;6.00;;;;;13.12;57.31;101859.47;5034348;28;45332;-69
2022/03/15 03:30:28;;;;;;;;;5.75;5.75;;;;;13.13;57.73;101856.75;5025951;28;45368;-69
2022/03/15 03:32:54;;;;;;;;;8.50;8.00;;;;;12.98;57.81;101847.28;5033997;28;46647;-69
2022/03/15 03:35:19;;;;;;;;;6.75;6.00;;;;;13.05;57.74;101861.41;5023767;28;45232;-69
2022/03/15 03:37:45;;;;;;;;;6.50;6.00;;;;;13.05;58.65;101855.19;5046067;28;45327;-69
2022/03/15 03:40:10;;;;;;;;;9.25;9.00;;;;;13.06;58.46;101856.94;5030485;28;47365;-69
2022/03/15 03:42:36;;;;;;;;;8.50;7.00;;;;;13.00;58.60;101855.28;5041797;28;46104;-69
2022/03/15 03:45:03;;;;;;;;;6.50;6.00;;;;;13.10;58.95;101864.00;5042006;28;45615;-69
2022/03/15 03:47:29;;;;;;;;;7.75;7.75;;;;;13.11;58.84;101865.72;5029446;28;45386;-69
2022/03/15 03:49:54;;;;;;;;;5.25;5.25;;;;;13.11;59.10;101863.97;5024930;28;45316;-69
2022/03/15 03:52:19;;;;;;;;;8.75;8.00;;;;;13.11;59.16;101857.69;5031426;28;46924;-69
2022/03/15 03:54:45;;;;;;;;;5.25;5.25;;;;;13.11;59.24;101845.19;5035294;28;45328;-69
2022/03/15 03:57:10;;;;;;;;;7.75;7.25;;;;;13.15;59.13;101851.34;5022071;28;45329;-69
2022/03/15 03:59:36;;;;;;;;;6.25;6.25;;;;;13.18;59.45;101853.06;5021814;28;45371;-69
2022/03/15 04:02:01;;;;;;;;;7.25;7.00;;;;;13.14;59.52;101853.13;5037635;28;46526;-69
2022/03/15 04:04:28;;;;;;;;;7.00;7.00;;;;;13.12;59.81;101851.44;5026768;28;45326;-70
2022/03/15 04:06:55;;;;;;;;;5.50;5.50;;;;;13.11;59.68;101842.50;5021931;28;45399;-69
2022/03/15 04:09:20;;;;;;;;;9.00;7.75;;;;;13.12;59.87;101846.06;5022142;28;45315;-69
2022/03/15 04:11:46;;;;;;;;;8.00;8.00;;;;;13.13;60.16;101837.97;5030773;28;45311;-69
2022/03/15 04:14:11;;;;;;;;;8.00;7.50;;;;;13.11;60.08;101826.44;5031181;28;45220;-69
2022/03/15 04:16:37;;;;;;;;;8.00;8.00;;;;;13.16;60.03;101837.00;5034543;28;45264;-69
2022/03/15 04:19:04;;;;;;;;;9.00;7.25;;;;;13.15;60.11;101830.78;5021762;28;45388;-69
2022/03/15 04:21:29;;;;;;;;;8.00;7.25;;;;;13.20;59.99;101825.31;5033958;28;46940;-69
2022/03/15 04:23:56;;;;;;;;;9.50;9.00;;;;;13.20;60.47;101825.31;5021538;28;45353;-69
2022/03/15 04:26:22;;;;;;;;;7.00;7.00;;;;;13.21;60.37;101819.00;5034466;28;45399;-69
2022/03/15 04:28:47;;;;;;;;;8.00;8.00;;;;;13.18;60.82;101828.94;5031745;28;45378;-70
2022/03/15 04:31:13;;;;;;;;;7.00;7.00;;;;;13.17;60.59;101817.34;5024998;28;46444;-69
2022/03/15 04:33:39;;;;;;;;;7.75;7.75;;;;;13.23;60.80;101827.00;5034624;28;45258;-69
2022/03/15 04:36:05;;;;;;;;;9.50;8.25;;;;;13.20;60.73;101813.66;5021393;28;45220;-70
2022/03/15 04:38:31;;;;;;;;;9.50;7.50;;;;;13.19;60.82;101825.34;5021008;28;45673;-70
2022/03/15 04:40:58;;;;;;;;;10.25;8.50;;;;;13.19;61.26;101828.88;5023886;28;46082;-69
2022/03/15 04:43:24;;;;;;;;;6.50;6.00;;;;;13.19;61.22;101825.34;5043417;28;45394;-70
2022/03/15 04:45:50;;;;;;;;;7.25;7.25;;;;;13.14;61.05;101809.38;5041510;28;45345;-69
2022/03/15 04:48:17;;;;;;;;;9.00;7.00;;;;;13.15;61.05;101803.09;5022698;28;45469;-69
2022/03/15 04:50:42;;;;;;;;;9.50;9.00;;;;;13.13;61.08;101807.59;5028432;28;46264;-70
2022/03/15 04:53:08;;;;;;;;;7.50;7.50;;;;;13.18;61.53;101804.78;5027546;28;45331;-69
2022/03/15 04:55:33;;;;;;;;;7.00;6.00;;;;;13.19;61.45;101815.47;5033330;28;45359;-69
2022/03/15 04:57:58;;;;;;;;;7.00;7.00;;;;;13.18;61.70;101818.19;5020912;28;45296;-69
2022/03/15 05:00:24;;;;;;;;;7.25;7.00;;;;;13.13;61.94;101805.81;5021067;28;46233;-69
2022/03/15 05:02:49;;;;;;;;;8.75;7.00;;;;;13.19;61.78;101815.47;5030013;28;45296;-70
2022/03/15 05:05:14;;;;;;;;;6.50;6.50;;;;;13.13;61.73;101794.19;5030544;28;45221;-69
2022/03/15 05:07:40;;;;;;;;;7.50;7.50;;;;;13.16;61.65;101794.13;5024633;28;45417;-70
2022/03/15 05:12:50;;;;;;;;;10.00;8.25;;;;;13.15;61.81;101797.72;5032117;28;45231;-69
2022/03/15 05:15:16;;;;;;;;;8.00;7.00;;;;;13.23;62.26;101811.81;5022558;28;45653;-69
2022/03/15 05:17:41;;;;;;;;;8.25;8.25;;;;;13.23;62.26;101803.78;5025695;28;45505;-70
2022/03/15 05:20:08;;;;;;;;;11.50;9.50;;;;;13.24;62.45;101801.97;5021865;28;46544;-69
2022/03/15 05:22:33;;;;;;;;;8.25;8.00;;;;;13.22;62.47;101807.38;5049567;28;45187;-69
2022/03/15 05:25:00;;;;;;;;;8.00;8.00;;;;;13.13;62.36;101805.81;5044153;28;45398;-69
2022/03/15 05:27:26;;;;;;;;;10.50;8.50;;;;;13.15;62.48;101808.47;5040341;28;45325;-69
2022/03/15 05:29:52;;;;;;;;;10.00;10.00;;;;;13.13;62.54;101799.53;5024238;28;46291;-69
2022/03/15 05:32:18;;;;;;;;;8.00;6.50;;;;;13.19;63.07;101809.25;5027594;28;45324;-69
2022/03/15 05:34:43;;;;;;;;;7.50;7.50;;;;;13.20;63.17;101816.34;5027088;28;45408;-69
2022/03/15 05:37:09;;;;;;;;;7.50;7.50;;;;;13.21;63.13;101802.03;5020446;28;45319;-69
2022/03/15 05:39:35;;;;;;;;;10.75;8.75;;;;;13.22;63.04;101812.72;5024685;28;46251;-69
2022/03/15 05:42:01;;;;;;;;;9.25;7.25;;;;;13.23;63.11;101814.50;5024583;28;45328;-69
2022/03/15 05:44:27;;;;;;;;;10.75;8.75;;;;;13.27;63.30;101813.47;5029055;28;45546;-69
2022/03/15 05:46:53;;;;;;;;;8.25;8.25;;;;;13.27;63.36;101804.56;5037812;28;45321;-69
2022/03/15 05:49:18;;;;;;;;;8.00;6.00;;;;;13.29;63.10;101803.59;5020287;28;45827;-69
2022/03/15 05:51:44;;;;;;;;;8.75;8.75;;;;;13.32;63.14;101821.44;5032778;28;45296;-69
2022/03/15 05:54:09;;;;;;;;;9.25;9.25;;;;;13.33;63.36;101815.13;5025300;28;45558;-69
2022/03/15 05:56:35;;;;;;;;;8.75;7.50;;;;;13.34;63.58;101816.91;5019722;28;45490;-69
2022/03/15 05:59:00;;;;;;;;;8.75;8.75;;;;;13.33;63.33;101824.09;5020222;28;45391;-69
2022/03/15 06:01:26;;;;;;;;;8.00;7.50;;;;;13.33;63.69;101816.03;5031419;28;45311;-69
2022/03/15 06:03:53;;;;;;;;;8.50;7.50;;;;;13.30;63.49;101805.38;5020988;28;45440;-69
2022/03/15 06:06:20;;;;;;;;;11.75;9.50;;;;;13.36;63.69;101815.06;5019819;28;45341;-69
2022/03/15 06:08:45;;;;;;;;;9.00;9.00;;;;;13.36;63.61;101825.78;5019922;28;45226;-69
2022/03/15 06:11:12;;;;;;;;;13.00;9.50;;;;;13.37;63.71;101824.00;5029128;28;45460;-69
2022/03/15 06:13:38;;;;;;;;;10.75;10.75;;;;;13.38;63.81;101820.38;5022765;28;45316;-69
2022/03/15 06:16:03;;;;;;;;;9.25;9.25;;;;;13.37;63.64;101821.34;5023003;28;45394;-69
2022/03/15 06:18:29;;;;;;;;;8.50;7.25;;;;;13.37;63.81;101811.47;5022535;28;45412;-69
2022/03/15 06:20:54;;;;;;;;;8.25;7.75;;;;;13.36;63.81;101820.44;5020175;28;45516;-69
2022/03/15 06:23:21;;;;;;;;;11.00;11.00;;;;;13.36;63.77;101823.09;5019663;28;45392;-69
2022/03/15 06:25:46;;;;;;;;;10.75;10.50;;;;;13.35;63.48;101832.09;5020246;28;45507;-69
2022/03/15 06:28:12;;;;;;;;;10.75;10.75;;;;;13.32;63.94;101825.00;5019251;28;45323;-69
2022/03/15 06:30:37;;;;;;;;;11.50;11.00;;;;;13.30;63.87;101824.13;5032948;28;45484;-69
2022/03/15 06:33:03;;;;;;;;;11.50;11.50;;;;;13.32;63.85;101821.44;5025212;28;45368;-69
2022/03/15 06:35:29;;;;;;;;;12.75;11.25;;;;;13.28;63.79;101819.72;5022312;28;45653;-69
2022/03/15 06:37:55;;;;;;;;;9.00;9.00;;;;;13.26;64.04;101819.75;5030525;28;45490;-69
2022/03/15 06:40:25;;;;;;;;;13.75;13.75;;;;;13.31;64.09;101823.22;5019582;28;45298;-69
2022/03/15 06:42:52;;;;;;;;;14.00;11.00;;;;;13.31;64.26;101822.31;5018875;28;45469;-69
2022/03/15 06:45:17;;;;;;;;;9.75;9.75;;;;;13.31;64.16;101815.19;5019945;28;45403;-70
2022/03/15 06:47:43;;;;;;;;;13.50;13.50;;;;;13.27;64.24;101816.16;5032393;28;45418;-70
2022/03/15 06:50:09;;;;;;;;;11.00;11.00;;;;;13.24;64.25;101818.91;5019400;28;45293;-68
2022/03/15 06:52:36;;;;;;;;;9.25;9.25;;;;;13.28;64.53;101823.31;5032034;28;45193;-69
2022/03/15 06:55:02;;;;;;;;;15.25;12.75;;;;;13.28;64.21;101823.31;5027203;28;45536;-68
2022/03/15 06:57:28;;;;;;;;;13.25;13.25;;;;;13.30;64.38;101818.78;5032223;28;46232;-68
2022/03/15 06:59:56;;;;;;;;;14.25;14.00;;;;;13.28;64.52;101820.63;5031285;28;45379;-69
2022/03/15 07:02:21;;;;;;;;;16.75;15.50;;;;;13.26;64.70;101814.38;5025446;28;45430;-68
2022/03/15 07:04:47;;;;;;;;;17.25;15.75;;;;;13.26;64.35;101800.97;5025468;28;45449;-68
2022/03/15 07:07:13;;;;;;;;;15.50;14.50;;;;;13.23;64.18;101806.47;5018812;28;45217;-68
2022/03/15 07:09:38;;;;;;;;;14.25;14.25;;;;;13.18;64.52;101803.03;5019355;28;45467;-68
2022/03/15 07:12:04;;;;;;;;;14.75;13.50;;;;;13.14;64.71;101822.78;5024092;28;45362;-68
2022/03/15 07:14:30;;;;;;;;;17.00;16.00;;;;;13.07;64.68;101811.31;5026943;28;45312;-69
2022/03/15 07:16:58;;;;;;;;;16.00;13.75;;;;;13.11;64.89;101813.03;5029857;28;47192;-69
2022/03/15 07:19:23;;;;;;;;;16.50;15.25;;;;;13.09;65.12;101814.84;5028218;28;45911;-69
2022/03/15 07:21:49;;;;;;;;;17.00;17.00;;;;;13.16;64.77;101827.19;5037494;28;45481;-70
2022/03/15 07:24:14;;;;;;;;;17.50;16.50;;;;;13.11;64.88;101817.47;5037585;28;45665;-70
2022/03/15 07:26:39;;;;;;;;;19.00;15.75;;;;;13.14;64.95;101820.09;5031760;28;45378;-70
2022/03/15 07:29:05;;;;;;;;;19.00;16.25;;;;;13.10;65.07;101821.97;5018785;28;45296;-71
2022/03/15 07:31:30;;;;;;;;;14.25;12.75;;;;;13.11;65.01;101817.47;5031876;28;45401;-70
2022/03/15 07:33:55;;;;;;;;;18.00;18.00;;;;;13.11;65.13;101838.94;5017600;28;45348;-70
2022/03/15 07:36:22;;;;;;;;;17.00;17.00;;;;;13.01;65.18;101824.88;5022250;28;47118;-70
2022/03/15 07:38:48;;;;;;;;;16.00;14.00;;;;;13.08;65.44;101825.59;5031307;28;45515;-71
2022/03/15 07:41:13;;;;;;;;;20.00;19.75;;;;;13.10;65.25;101824.66;5025602;28;45371;-70
2022/03/15 07:43:38;;;;;;;;;20.75;18.50;;;;;13.16;65.34;101827.19;5023377;28;45296;-71
2022/03/15 07:46:04;;;;;;;;;19.00;17.75;;;;;13.16;65.27;101811.09;5022071;28;46286;-70
2022/03/15 07:48:30;;;;;;;;;18.00;15.50;;;;;13.01;65.16;101798.06;5021691;28;45541;-72
2022/03/15 07:50:56;;;;;;;;;18.00;18.00;;;;;13.08;65.71;101812.19;5025646;28;45285;-70
2022/03/15 07:53:21;;;;;;;;;17.50;17.50;;;;;13.07;65.99;101810.44;5035041;28;45485;-71
2022/03/15 07:55:46;;;;;;;;;17.75;15.25;;;;;13.07;65.39;101802.41;5035282;28;46734;-71
2022/03/15 07:58:12;;;;;;;;;13.25;10.25;;;;;13.13;65.80;101819.22;5041133;28;45319;-71
2022/03/15 08:00:37;;;;;;;;;18.50;15.50;;;;;13.11;65.68;101812.13;5028240;28;45257;-70
2022/03/15 08:03:03;;;;;;;;;18.00;17.25;;;;;12.97;65.69;101799.94;5037916;28;45217;-71
2022/03/15 08:05:28;;;;;;;;;23.50;19.00;;;;;13.04;66.02;101810.53;5033793;28;47371;-71
2022/03/15 08:07:55;;;;;;;;;18.50;18.00;;;;;13.00;66.11;101803.47;5035228;28;45454;-71
2022/03/15 08:10:21;;;;;;;;;19.25;17.50;;;;;13.01;66.04;101805.25;5034560;28;45458;-71
2022/03/15 08:12:47;;;;;;;;;21.25;20.25;;;;;12.99;65.97;101797.25;5022637;28;45462;-71
2022/03/15 08:15:12;;;;;;;;;20.25;20.00;;;;;13.01;65.82;101794.53;5020270;28;45954;-71
2022/03/15 08:17:39;;;;;;;;;14.50;14.50;;;;;13.08;66.00;101813.09;5023499;28;45494;-71
2022/03/15 08:20:05;;;;;;;;;15.75;15.75;;;;;13.00;66.13;101799.00;5031819;28;45395;-71
2022/03/15 08:22:31;;;;;;;;;16.50;16.50;;;;;12.98;66.09;101799.03;5034996;28;45436;-71
2022/03/15 08:24:58;;;;;;;;;18.50;18.50;;;;;13.01;66.05;101800.75;5021629;28;46163;-71
2022/03/15 08:27:24;;;;;;;;;26.00;22.00;;;;;12.96;66.19;101803.56;5032618;28;45359;-71
2022/03/15 08:29:49;;;;;;;;;20.50;18.00;;;;;12.89;66.47;101793.03;5020016;28;45382;-71
2022/03/15 08:32:15;;;;;;;;;21.75;19.25;;;;;12.90;66.54;101792.13;5033101;28;45544;-71
2022/03/15 08:34:42;;;;;;;;;24.50;22.25;;;;;12.84;66.61;101792.28;5040180;28;46122;-71
2022/03/15 08:37:08;;;;;;;;;21.50;20.00;;;;;12.79;67.00;101808.47;5022991;28;45366;-71
2022/03/15 08:39:34;;;;;;;;;19.50;19.00;;;;;12.76;66.85;101816.56;5019848;28;45671;-71
2022/03/15 08:42:00;;;;;;;;;19.00;18.25;;;;;12.72;66.84;101815.75;5032386;28;45391;-71
2022/03/15 08:44:25;;;;;;;;;23.75;22.00;;;;;12.75;67.13;101830.91;5028438;28;45294;-71
2022/03/15 08:46:51;;;;;;;;;22.25;21.00;;;;;12.77;67.07;101818.34;5038094;28;45323;-71
2022/03/15 08:49:18;;;;;;;;;23.75;23.50;;;;;12.79;66.93;101830.75;5019438;28;45755;-71
2022/03/15 08:51:45;;;;;;;;;23.00;22.75;;;;;12.80;67.02;101826.31;5022940;28;45448;-71
2022/03/15 08:54:11;;;;;;;;;24.25;21.25;;;;;12.75;66.85;101814.81;5036654;28;46258;-74
2022/03/15 08:56:40;;;;;;;;;19.25;18.75;;;;;12.81;67.08;101822.69;5030304;28;45538;-70
2022/03/15 08:59:06;;;;;;;;;26.25;22.50;;;;;12.72;67.08;101818.44;5031524;28;45412;-70
2022/03/15 09:01:31;;;;;;;;;21.25;21.25;;;;;12.82;67.21;101834.31;5019647;28;45379;-70
2022/03/15 09:03:57;;;;;;;;;21.00;21.00;;;;;12.76;67.25;101827.28;5019755;28;45246;-70
2022/03/15 09:06:22;;;;;;;;;19.50;19.00;;;;;12.74;67.14;101818.41;5033387;28;45480;-70
2022/03/15 09:08:48;;;;;;;;;28.00;26.00;;;;;12.79;67.30;101830.75;5022816;28;45421;-70
2022/03/15 09:11:13;;;;;;;;;24.25;22.50;;;;;12.82;67.30;101832.50;5029738;28;45352;-70
2022/03/15 09:13:39;;;;;;;;;17.00;17.00;;;;;12.77;67.17;101827.25;5039346;28;46571;-70
2022/03/15 09:16:05;;;;;;;;;24.50;22.50;;;;;12.81;67.20;101827.19;5039178;28;45225;-71
2022/03/15 09:18:31;;;;;;;;;22.75;22.25;;;;;12.89;67.40;101836.78;5042840;28;45551;-70
2022/03/15 09:20:57;;;;;;;;;20.50;19.75;;;;;12.87;67.08;101824.34;5041743;28;45843;-70
2022/03/15 09:23:22;;;;;;;;;21.50;20.75;;;;;12.95;67.35;101839.31;5026069;28;45902;-70
2022/03/15 09:25:49;;;;;;;;;25.00;24.00;;;;;12.93;67.51;101830.44;5039463;28;45350;-70
2022/03/15 09:28:18;;;;;;;;;24.00;21.00;;;;;12.93;67.43;101833.13;5021580;28;45396;-71
2022/03/15 09:30:46;;;;;;;;;23.25;22.25;;;;;12.90;67.49;101818.94;5021360;28;45368;-70
2022/03/15 09:33:12;;;;;;;;;25.50;19.75;;;;;12.85;67.11;101811.00;5021289;28;45423;-70
2022/03/15 09:35:39;;;;;;;;;25.00;22.00;;;;;12.98;67.52;101831.22;5019666;28;45368;-70
2022/03/15 09:38:04;;;;;;;;;27.25;23.25;;;;;12.93;67.40;101818.81;5025178;28;45292;-71
2022/03/15 09:40:31;;;;;;;;;22.50;22.25;;;;;12.98;67.42;101817.81;5031079;28;45671;-70
2022/03/15 09:43:00;;;;;;;;;23.00;21.75;;;;;13.03;67.68;101820.38;5030417;28;47121;-70
2022/03/15 09:45:30;;;;;;;;;20.75;20.75;;;;;13.04;67.51;101816.75;5033217;28;45762;-70
2022/03/15 09:47:57;;;;;;;;;22.00;20.75;;;;;13.03;67.58;101814.13;5029618;28;45417;-70
2022/03/15 09:50:24;;;;;;;;;22.25;20.75;;;;;13.04;67.33;101805.16;5021230;28;45320;-70
2022/03/15 09:52:50;;;;;;;;;26.75;22.00;;;;;13.08;67.35;101813.09;5018868;28;45706;-71
2022/03/15 09:55:15;;;;;;;;;20.00;14.00;;;;;13.04;67.49;101794.44;5023874;28;45348;-70
2022/03/15 09:57:41;;;;;;;;;20.50;18.25;;;;;13.09;67.24;101798.75;5035083;28;45602;-70
2022/03/15 10:00:08;;;;;;;;;23.00;20.00;;;;;13.13;67.21;101796.88;5037362;28;45494;-70
2022/03/15 10:02:40;;;;;;;;;21.75;21.75;;;;;13.05;67.31;101797.09;5036790;28;48024;-70
2022/03/15 10:05:06;;;;;;;;;21.00;21.00;;;;;13.04;67.41;101789.94;5027277;28;45751;-70
2022/03/15 10:07:32;;;;;;;;;22.00;21.00;;;;;13.13;67.22;101794.19;5021700;28;45512;-70
2022/03/15 10:10:00;;;;;;;;;18.00;17.75;;;;;13.12;67.44;101796.00;5022136;28;45371;-71
2022/03/15 10:12:25;;;;;;;;;23.75;22.50;;;;;13.12;67.50;101790.63;5019581;28;47220;-70
2022/03/15 10:14:51;;;;;;;;;20.00;18.25;;;;;13.14;67.37;101799.50;5025775;28;45318;-70
2022/03/15 10:17:16;;;;;;;;;21.75;19.75;;;;;12.92;67.42;101753.63;5021182;28;45477;-71
2022/03/15 10:19:56;;;;;;;;;25.50;22.50;;;;;13.14;67.48;101795.97;5031362;28;45367;-70
2022/03/15 10:22:25;;;;;;;;;32.75;30.25;;;;;13.11;67.32;101798.72;5033511;28;45410;-70
2022/03/15 10:24:52;;;;;;;;;21.25;21.25;;;;;13.12;67.54;101797.81;5030194;28;45409;-70
2022/03/15 10:27:17;;;;;;;;;21.25;20.75;;;;;13.11;67.54;101791.56;5031373;28;45411;-70
2022/03/15 10:29:43;;;;;;;;;19.50;19.00;;;;;13.15;67.49;101798.59;5019667;28;45333;-70
2022/03/15 10:32:09;;;;;;;;;22.00;21.00;;;;;13.08;67.49;101774.66;5026831;28;46111;-71
2022/03/15 10:34:36;;;;;;;;;20.75;19.75;;;;;13.11;67.63;101788.00;5025583;28;45704;-70
2022/03/15 10:37:02;;;;;;;;;21.75;21.75;;;;;13.11;67.93;101785.31;5023530;28;45328;-70
2022/03/15 10:39:28;;;;;;;;;23.75;21.25;;;;;13.14;67.73;101782.56;5023433;28;45529;-70
2022/03/15 10:42:01;;;;;;;;;22.75;21.50;;;;;13.19;67.70;101786.00;5031907;28;46889;-70
2022/03/15 10:44:37;;;;;;;;;24.25;21.00;;;;;13.18;67.79;101791.38;5036882;28;45462;-70
2022/03/15 10:47:05;;;;;;;;;23.00;21.25;;;;;13.23;67.55;101793.06;5026169;28;45616;-70
2022/03/15 10:49:46;;;;;;;;;23.25;20.50;;;;;13.22;67.80;101788.59;5028783;28;45477;-70
2022/03/15 10:52:11;;;;;;;;;25.50;22.25;;;;;13.20;67.96;101789.53;5018514;28;46371;-70
2022/03/15 10:54:37;;;;;;;;;21.25;20.50;;;;;13.21;68.04;101789.50;5030301;28;45446;-71
2022/03/15 10:57:03;;;;;;;;;23.75;21.50;;;;;13.20;67.81;101782.41;5030485;28;45386;-70
2022/03/15 10:59:29;;;;;;;;;23.75;23.75;;;;;13.20;68.03;101774.34;5021130;28;45618;-70
2022/03/15 11:01:55;;;;;;;;;21.25;21.25;;;;;13.14;67.57;101770.03;5043821;28;48051;-71
2022/03/15 11:04:20;;;;;;;;;24.50;23.50;;;;;13.23;67.79;101773.38;5035898;28;45410;-71
2022/03/15 11:06:50;;;;;;;;;25.50;23.75;;;;;13.26;67.91;101779.53;5025945;28;45391;-71
2022/03/15 11:09:18;;;;;;;;;21.75;19.50;;;;;13.05;67.76;101732.75;5017605;28;45415;-71
2022/03/15 11:11:51;;;;;;;;;23.00;23.00;;;;;13.27;67.86;101769.72;5029894;28;45978;-71
2022/03/15 11:14:39;;;;;;;;;22.25;19.75;;;;;13.28;68.00;101764.31;5021418;28;45379;-71